Time;durP1;ratioP1;P1;durP2;ratioP2;P2;SDS_P1;SDS_P2;PMS_P1;PMS_P2;Temp;Humidity;BMP_temperature;BMP_pressure;BME280_temperature;BME280_humidity;BME280_pressure;Samples;Min_cycle;Max_cycle;Signal;HPM_P1;HPM_P2
2023/01/14 00:00:24;;;;;;;14.05;3.25;;;7.70;99.90;;;;;;5110822;27;20047;-75
2023/01/14 00:02:49;;;;;;;13.88;3.20;;;7.70;99.90;;;;;;5131800;27;20078;-75
2023/01/14 00:05:15;;;;;;;16.45;3.33;;;7.70;99.90;;;;;;5129530;27;20047;-74
2023/01/14 00:07:41;;;;;;;13.95;3.20;;;7.70;99.90;;;;;;5125200;27;20090;-73
2023/01/14 00:10:07;;;;;;;15.57;2.65;;;7.70;99.90;;;;;;5132519;27;20039;-74
2023/01/14 00:12:33;;;;;;;13.23;3.27;;;7.70;99.90;;;;;;5113548;27;20059;-73
2023/01/14 00:14:59;;;;;;;11.82;2.90;;;7.70;99.90;;;;;;5113653;27;20299;-74
2023/01/14 00:17:25;;;;;;;14.63;3.13;;;7.70;99.90;;;;;;5129923;27;20042;-74
2023/01/14 00:19:50;;;;;;;18.50;3.05;;;7.70;99.90;;;;;;5112217;27;20042;-75
2023/01/14 00:22:16;;;;;;;18.38;2.92;;;7.70;99.90;;;;;;5130059;27;20039;-74
2023/01/14 00:24:42;;;;;;;12.25;2.92;;;7.70;99.90;;;;;;5115845;27;20035;-74
2023/01/14 00:27:07;;;;;;;11.07;2.63;;;7.70;99.90;;;;;;5131610;27;20140;-74
2023/01/14 00:29:34;;;;;;;10.80;2.30;;;7.60;99.90;;;;;;5131511;27;20791;-74
2023/01/14 00:32:03;;;;;;;12.40;2.80;;;7.70;99.90;;;;;;5131044;27;20122;-74
2023/01/14 00:34:30;;;;;;;14.27;3.05;;;7.70;99.90;;;;;;5132116;27;20039;-74
2023/01/14 00:36:57;;;;;;;13.60;3.28;;;7.70;99.90;;;;;;5126996;27;20035;-74
2023/01/14 00:39:23;;;;;;;11.35;2.60;;;7.70;99.90;;;;;;5113413;27;20050;-75
2023/01/14 00:41:49;;;;;;;12.88;3.20;;;7.60;99.90;;;;;;5112139;27;20047;-74
2023/01/14 00:44:15;;;;;;;14.30;2.67;;;7.70;99.90;;;;;;5130243;27;20487;-74
2023/01/14 00:46:41;;;;;;;17.27;4.03;;;7.70;99.90;;;;;;5128036;27;20088;-74
2023/01/14 00:49:16;;;;;;;13.27;3.10;;;7.70;99.90;;;;;;5129518;27;20058;-74
2023/01/14 00:51:42;;;;;;;15.65;2.72;;;7.70;99.90;;;;;;5129864;27;20027;-74
2023/01/14 00:54:07;;;;;;;15.68;3.50;;;7.70;99.90;;;;;;5131904;27;20626;-74
2023/01/14 00:56:33;;;;;;;13.10;2.85;;;7.70;99.90;;;;;;5129884;27;20057;-74
2023/01/14 00:58:59;;;;;;;16.88;3.50;;;7.70;99.90;;;;;;5131891;27;20043;-74
2023/01/14 01:01:25;;;;;;;16.77;3.65;;;7.70;99.90;;;;;;5129414;27;20039;-74
2023/01/14 01:03:53;;;;;;;13.75;3.25;;;7.70;99.90;;;;;;5129377;27;20035;-75
2023/01/14 01:06:20;;;;;;;16.15;3.10;;;7.60;99.90;;;;;;5126669;27;20039;-74
2023/01/14 01:08:46;;;;;;;14.95;3.60;;;7.70;99.90;;;;;;5129297;27;20039;-75
2023/01/14 01:11:12;;;;;;;15.10;3.33;;;7.60;99.90;;;;;;5110738;28;20047;-74
2023/01/14 01:13:38;;;;;;;11.45;3.17;;;7.60;99.90;;;;;;5128751;28;20053;-74
2023/01/14 01:16:07;;;;;;;18.58;3.05;;;7.60;99.90;;;;;;5131541;28;20130;-74
2023/01/14 01:18:33;;;;;;;17.27;3.80;;;7.60;99.90;;;;;;5128872;28;20386;-74
2023/01/14 01:21:07;;;;;;;18.27;2.88;;;7.60;99.90;;;;;;5130754;28;20074;-74
2023/01/14 01:23:34;;;;;;;21.75;3.72;;;7.60;99.90;;;;;;5130370;28;20126;-75
2023/01/14 01:26:02;;;;;;;17.25;3.58;;;7.50;99.90;;;;;;5131036;28;20043;-75
2023/01/14 01:28:28;;;;;;;17.15;3.42;;;7.50;99.90;;;;;;5131799;28;20054;-75
2023/01/14 01:30:53;;;;;;;14.93;3.28;;;7.50;99.90;;;;;;5108129;28;20046;-75
2023/01/14 01:33:19;;;;;;;20.95;3.28;;;7.60;99.90;;;;;;5129914;28;20036;-75
2023/01/14 01:35:45;;;;;;;20.45;3.60;;;7.60;99.90;;;;;;5132011;28;20054;-75
2023/01/14 01:38:10;;;;;;;19.05;3.40;;;7.50;99.90;;;;;;5130344;28;20039;-75
2023/01/14 01:40:36;;;;;;;15.07;3.17;;;7.60;99.90;;;;;;5112048;28;20036;-75
2023/01/14 01:43:02;;;;;;;18.48;3.92;;;7.60;99.90;;;;;;5132138;27;20473;-75
2023/01/14 01:45:46;;;;;;;13.38;3.30;;;7.60;99.90;;;;;;5115262;27;20407;-73
2023/01/14 01:48:20;;;;;;;16.73;3.10;;;7.60;99.90;;;;;;5114902;27;20047;-73
2023/01/14 01:50:52;;;;;;;20.58;3.95;;;7.70;99.90;;;;;;5129475;27;20035;-73
2023/01/14 01:53:19;;;;;;;22.35;3.63;;;7.70;99.90;;;;;;5128996;27;20456;-73
2023/01/14 01:55:51;;;;;;;17.50;4.05;;;7.70;99.90;;;;;;5134140;27;20122;-73
2023/01/14 01:58:17;;;;;;;20.95;4.38;;;7.70;99.90;;;;;;5134243;27;20039;-73
2023/01/14 02:00:43;;;;;;;19.77;3.33;;;7.80;99.90;;;;;;5134733;27;20381;-73
2023/01/14 02:03:17;;;;;;;15.63;3.75;;;7.70;99.90;;;;;;5114515;27;20501;-73
2023/01/14 02:05:43;;;;;;;17.55;3.58;;;7.70;99.90;;;;;;5134957;27;20087;-74
2023/01/14 02:08:09;;;;;;;15.70;4.25;;;7.70;99.90;;;;;;5114745;27;20093;-74
2023/01/14 02:11:10;;;;;;;17.13;4.10;;;7.70;99.90;;;;;;5133276;27;20558;-74
2023/01/14 02:14:07;;;;;;;19.67;3.65;;;7.70;99.90;;;;;;5122424;27;20078;-74
2023/01/14 02:17:02;;;;;;;14.23;3.28;;;7.70;99.90;;;;;;5134617;27;20035;-74
2023/01/14 02:20:04;;;;;;;16.10;3.42;;;7.70;99.90;;;;;;5133137;27;20043;-75
2023/01/14 02:23:07;;;;;;;18.58;3.83;;;7.70;99.90;;;;;;5127773;27;20042;-74
2023/01/14 02:26:11;;;;;;;19.67;3.40;;;7.70;99.90;;;;;;5114570;27;20039;-75
2023/01/14 02:29:03;;;;;;;13.98;3.13;;;7.70;99.90;;;;;;5114519;27;20040;-75
2023/01/14 02:31:40;;;;;;;16.08;3.35;;;7.70;99.90;;;;;;5126989;27;20050;-75
2023/01/14 02:34:19;;;;;;;17.95;3.13;;;7.70;99.90;;;;;;5131259;27;20047;-75
2023/01/14 02:36:53;;;;;;;19.50;3.22;;;7.70;99.90;;;;;;5116042;27;20378;-75
2023/01/14 02:39:40;;;;;;;16.17;3.30;;;7.70;99.90;;;;;;5133871;27;20169;-74
2023/01/14 02:45:31;;;;;;;20.30;4.07;;;7.70;99.90;;;;;;5134554;27;20086;-74
2023/01/14 02:47:59;;;;;;;13.63;3.20;;;7.70;99.90;;;;;;5130664;27;20047;-75
2023/01/14 02:50:25;;;;;;;18.45;3.65;;;7.60;99.90;;;;;;5130907;27;20393;-75
2023/01/14 02:52:51;;;;;;;16.48;3.80;;;7.60;99.90;;;;;;5133769;27;20035;-75
2023/01/14 02:55:29;;;;;;;17.58;3.55;;;7.60;99.90;;;;;;5132543;27;20049;-74
2023/01/14 02:58:01;;;;;;;18.23;3.65;;;7.60;99.90;;;;;;5115787;27;20039;-74
2023/01/14 03:00:56;;;;;;;19.00;3.65;;;7.60;99.90;;;;;;5133218;27;20107;-75
2023/01/14 03:03:56;;;;;;;15.70;3.30;;;7.60;99.90;;;;;;5124502;27;20043;-75
2023/01/14 03:06:47;;;;;;;17.60;3.17;;;7.60;99.90;;;;;;5113057;28;20096;-75
2023/01/14 03:09:34;;;;;;;17.77;3.70;;;7.60;99.90;;;;;;5119770;27;20047;-75
2023/01/14 03:12:14;;;;;;;16.30;3.75;;;7.60;99.90;;;;;;5132198;27;20058;-74
2023/01/14 03:14:50;;;;;;;14.50;3.50;;;7.60;99.90;;;;;;5133803;27;20104;-75
2023/01/14 03:17:21;;;;;;;15.05;3.13;;;7.50;99.90;;;;;;5112047;27;20489;-74
2023/01/14 03:20:00;;;;;;;20.77;3.20;;;7.50;99.90;;;;;;5134410;27;20043;-74
2023/01/14 03:22:27;;;;;;;16.73;3.45;;;7.50;99.90;;;;;;5131012;27;20050;-73
2023/01/14 03:24:56;;;;;;;16.10;3.80;;;7.50;99.90;;;;;;5132542;27;20042;-75
2023/01/14 03:27:26;;;;;;;14.60;3.50;;;7.50;99.90;;;;;;5133390;27;20046;-75
2023/01/14 03:30:01;;;;;;;16.60;3.70;;;7.50;99.90;;;;;;5114285;27;20087;-73
2023/01/14 03:32:48;;;;;;;18.15;3.65;;;7.40;99.90;;;;;;5131446;27;20486;-73
2023/01/14 03:35:17;;;;;;;;;;;7.50;99.90;;;;;;5112512;27;20201;-73
2023/01/14 03:37:49;;;;;;;14.48;3.67;;;7.40;99.90;;;;;;5132483;27;20370;-73
2023/01/14 03:40:17;;;;;;;15.18;3.75;;;7.40;99.90;;;;;;5114152;27;20542;-74
2023/01/14 03:42:47;;;;;;;15.68;3.30;;;7.40;99.90;;;;;;5132279;27;20055;-74
2023/01/14 03:45:27;;;;;;;20.75;4.38;;;7.30;99.90;;;;;;5132493;27;20042;-74
2023/01/14 03:47:53;;;;;;;18.73;3.03;;;7.30;99.90;;;;;;5113921;27;20406;-75
2023/01/14 03:50:25;;;;;;;16.52;3.22;;;7.30;99.90;;;;;;5133307;27;20042;-73
2023/01/14 03:52:57;;;;;;;16.65;3.30;;;7.30;99.90;;;;;;5131223;27;20482;-72
2023/01/14 03:55:31;;;;;;;19.85;3.38;;;7.30;99.90;;;;;;5116325;27;20054;-74
2023/01/14 03:58:01;;;;;;;17.33;3.28;;;7.30;99.90;;;;;;5114436;27;20043;-73
2023/01/14 04:00:36;;;;;;;17.25;3.33;;;7.30;99.90;;;;;;5130589;27;20043;-74
2023/01/14 04:03:09;;;;;;;16.90;3.08;;;7.30;99.90;;;;;;5130631;27;20042;-74
2023/01/14 04:05:35;;;;;;;17.13;3.30;;;7.30;99.90;;;;;;5130256;27;20054;-74
2023/01/14 04:08:03;;;;;;;18.23;4.18;;;7.20;99.90;;;;;;5114867;27;20050;-74
2023/01/14 04:10:29;;;;;;;17.77;3.20;;;7.20;99.90;;;;;;5133632;27;20027;-74
2023/01/14 04:15:39;;;;;;;21.38;4.40;;;7.20;99.90;;;;;;5131665;27;20043;-74
2023/01/14 04:18:04;;;;;;;24.80;4.35;;;7.10;99.90;;;;;;5132316;27;20030;-74
2023/01/14 04:20:31;;;;;;;19.20;3.92;;;7.10;99.90;;;;;;5131957;27;20379;-74
2023/01/14 04:22:57;;;;;;;24.23;5.37;;;7.10;99.90;;;;;;5112479;27;20046;-74
2023/01/14 04:25:23;;;;;;;20.33;4.18;;;7.10;99.90;;;;;;5093464;27;20056;-74
2023/01/14 04:27:48;;;;;;;24.15;4.90;;;7.10;99.90;;;;;;5130894;27;20101;-74
2023/01/14 04:30:14;;;;;;;18.73;4.75;;;7.10;99.90;;;;;;5130741;27;20054;-74
2023/01/14 04:32:40;;;;;;;22.95;4.65;;;7.00;99.90;;;;;;5127703;27;20035;-74
2023/01/14 04:35:06;;;;;;;22.30;4.43;;;7.00;99.90;;;;;;5112151;27;20051;-74
2023/01/14 04:37:32;;;;;;;24.80;4.72;;;7.00;99.90;;;;;;5130027;27;20043;-74
2023/01/14 04:39:57;;;;;;;19.60;4.28;;;7.00;99.90;;;;;;5128111;27;20047;-74
2023/01/14 04:42:26;;;;;;;20.08;4.90;;;7.00;99.90;;;;;;5109840;27;20039;-74
2023/01/14 04:44:57;;;;;;;20.70;4.35;;;7.00;99.90;;;;;;5131348;27;20047;-74
2023/01/14 04:47:23;;;;;;;20.80;4.80;;;7.00;99.90;;;;;;5130360;27;20082;-74
2023/01/14 04:49:49;;;;;;;28.03;4.53;;;6.90;99.90;;;;;;5131490;27;20039;-74
2023/01/14 04:52:15;;;;;;;23.08;4.45;;;7.00;99.90;;;;;;5130680;27;20380;-74
2023/01/14 04:54:42;;;;;;;22.30;5.05;;;6.90;99.90;;;;;;5113592;27;20039;-74
2023/01/14 04:57:08;;;;;;;20.63;4.38;;;6.90;99.90;;;;;;5131175;27;20111;-74
2023/01/14 04:59:33;;;;;;;19.98;4.50;;;6.90;99.90;;;;;;5131910;27;20054;-74
2023/01/14 05:01:59;;;;;;;19.95;4.60;;;6.90;99.90;;;;;;5128701;27;20088;-74
2023/01/14 05:04:25;;;;;;;27.35;5.45;;;6.90;99.90;;;;;;5130440;27;20459;-74
2023/01/14 05:06:50;;;;;;;25.42;4.68;;;6.80;99.90;;;;;;5130960;27;20473;-74
2023/01/14 05:09:16;;;;;;;25.70;5.57;;;6.80;99.90;;;;;;5130294;27;20039;-74
2023/01/14 05:11:42;;;;;;;22.02;4.68;;;6.70;99.90;;;;;;5112767;28;20069;-74
2023/01/14 05:14:07;;;;;;;23.15;5.05;;;6.70;99.90;;;;;;5127966;28;20070;-74
2023/01/14 05:16:33;;;;;;;23.60;5.30;;;6.80;99.90;;;;;;5128623;27;20437;-74
2023/01/14 05:18:58;;;;;;;23.17;4.70;;;6.70;99.90;;;;;;5132164;28;20195;-74
2023/01/14 05:21:24;;;;;;;21.73;5.40;;;6.80;99.90;;;;;;5112928;28;20043;-74
2023/01/14 05:23:50;;;;;;;26.50;5.22;;;6.80;99.90;;;;;;5127650;28;20074;-74
2023/01/14 05:26:16;;;;;;;21.92;5.43;;;6.70;99.90;;;;;;5131531;28;20079;-74
2023/01/14 05:28:42;;;;;;;20.75;5.07;;;6.80;99.90;;;;;;5111809;28;20040;-74
2023/01/14 05:31:08;;;;;;;27.60;6.35;;;6.70;99.90;;;;;;5126856;28;20054;-74
2023/01/14 05:33:34;;;;;;;31.38;6.25;;;6.70;99.90;;;;;;5130595;28;20076;-73
2023/01/14 05:36:00;;;;;;;28.02;5.35;;;6.70;99.90;;;;;;5111443;28;20532;-73
2023/01/14 05:38:27;;;;;;;29.38;5.93;;;6.70;99.90;;;;;;5130909;28;20039;-74
2023/01/14 05:40:53;;;;;;;26.30;5.35;;;6.70;99.90;;;;;;5129464;28;20127;-74
2023/01/14 05:46:13;;;;;;;22.45;5.38;;;6.70;99.90;;;;;;5130670;28;20047;-74
2023/01/14 05:48:38;;;;;;;29.45;5.90;;;6.60;99.90;;;;;;5131340;28;20111;-74
2023/01/14 05:51:05;;;;;;;22.70;5.22;;;6.70;99.90;;;;;;5111675;28;20502;-74
2023/01/14 05:53:32;;;;;;;26.73;6.72;;;6.60;99.90;;;;;;5129839;28;20050;-74
2023/01/14 05:55:58;;;;;;;27.10;6.63;;;6.70;99.90;;;;;;5130753;28;20080;-74
2023/01/14 05:58:25;;;;;;;24.70;5.22;;;6.60;99.90;;;;;;5111687;28;20039;-74
2023/01/14 06:06:39;;;;;;;31.05;6.03;;;6.60;99.90;;;;;;5095919;28;20748;-74
2023/01/14 06:09:07;;;;;;;30.50;6.38;;;6.60;99.90;;;;;;5130111;28;20126;-74
2023/01/14 06:11:32;;;;;;;29.08;5.93;;;6.60;99.90;;;;;;5130122;28;20047;-74
2023/01/14 06:13:59;;;;;;;28.67;5.90;;;6.60;99.90;;;;;;5112269;28;20046;-74
2023/01/14 06:16:27;;;;;;;29.83;7.15;;;6.60;99.90;;;;;;5112773;28;20066;-74
2023/01/14 06:18:53;;;;;;;28.33;6.95;;;6.60;99.90;;;;;;5130249;28;20035;-74
2023/01/14 06:21:21;;;;;;;33.47;6.78;;;6.60;99.90;;;;;;5125469;28;20043;-74
2023/01/14 06:23:48;;;;;;;38.35;7.68;;;6.60;99.90;;;;;;5113193;28;20050;-74
2023/01/14 06:26:16;;;;;;;27.63;5.80;;;6.60;99.90;;;;;;5129310;28;20043;-74
2023/01/14 06:28:42;;;;;;;30.88;6.80;;;6.60;99.90;;;;;;5129483;27;20039;-74
2023/01/14 06:31:16;;;;;;;29.40;6.25;;;6.60;99.90;;;;;;5131083;27;20050;-74
2023/01/14 06:33:44;;;;;;;27.30;6.55;;;6.60;99.90;;;;;;5131871;27;20122;-74
2023/01/14 06:36:10;;;;;;;32.30;6.22;;;6.60;99.90;;;;;;5113980;27;20143;-75
2023/01/14 06:38:37;;;;;;;32.28;5.97;;;6.60;99.90;;;;;;5132098;27;20050;-74
2023/01/14 06:41:04;;;;;;;33.80;7.35;;;6.50;99.90;;;;;;5130927;27;20046;-74
2023/01/14 06:43:30;;;;;;;33.63;6.50;;;6.50;99.90;;;;;;5133980;27;20100;-74
2023/01/14 06:45:56;;;;;;;34.40;6.65;;;6.50;99.90;;;;;;5130401;27;20078;-74
2023/01/14 06:48:23;;;;;;;30.10;6.17;;;6.50;99.90;;;;;;5122709;27;20039;-74
2023/01/14 06:50:49;;;;;;;36.28;8.73;;;6.50;99.90;;;;;;5132272;27;20289;-74
2023/01/14 06:53:15;;;;;;;28.45;6.68;;;6.50;99.90;;;;;;5134378;27;20039;-74
2023/01/14 06:55:41;;;;;;;37.35;7.20;;;6.50;99.90;;;;;;5131306;27;20469;-74
2023/01/14 06:58:06;;;;;;;37.05;7.07;;;6.50;99.90;;;;;;5114209;27;20047;-74
2023/01/14 07:00:33;;;;;;;29.13;6.30;;;6.60;99.90;;;;;;5114575;27;20042;-72
2023/01/14 07:02:59;;;;;;;34.78;7.32;;;6.50;99.90;;;;;;5133573;27;20078;-72
2023/01/14 07:05:24;;;;;;;33.33;6.97;;;6.50;99.90;;;;;;5129487;27;20093;-72
2023/01/14 07:07:50;;;;;;;32.28;7.10;;;6.50;99.90;;;;;;5102460;27;20561;-72
2023/01/14 07:10:17;;;;;;;36.08;7.93;;;6.60;99.90;;;;;;5114641;27;20382;-72
2023/01/14 07:12:47;;;;;;;31.77;7.30;;;6.60;99.90;;;;;;5123450;27;20431;-72
2023/01/14 07:15:15;;;;;;;33.05;6.80;;;6.60;99.90;;;;;;5103191;28;20427;-72
2023/01/14 07:17:41;;;;;;;;;;;6.60;99.90;;;;;;5109104;27;20051;-72
2023/01/14 07:20:08;;;;;;;32.80;6.95;;;6.60;99.90;;;;;;5132052;27;19919;-72
2023/01/14 07:22:35;;;;;;;31.88;6.07;;;6.60;99.90;;;;;;5109169;27;20118;-72
2023/01/14 07:25:01;;;;;;;30.55;5.55;;;6.60;99.90;;;;;;5111952;27;20374;-72
2023/01/14 07:27:28;;;;;;;32.73;6.07;;;6.60;99.90;;;;;;5112229;27;20039;-72
2023/01/14 07:29:54;;;;;;;29.23;6.03;;;6.60;99.90;;;;;;5110058;27;20082;-71
2023/01/14 07:32:20;;;;;;;30.80;6.45;;;6.60;99.90;;;;;;5113274;27;20078;-71
2023/01/14 07:34:46;;;;;;;29.25;6.00;;;6.70;99.90;;;;;;5131640;27;20351;-71
2023/01/14 07:37:12;;;;;;;31.35;7.22;;;6.60;99.90;;;;;;5129864;27;21207;-71
2023/01/14 07:39:38;;;;;;;31.70;6.05;;;6.70;99.90;;;;;;5126813;27;20067;-71
2023/01/14 07:42:04;;;;;;;30.48;6.18;;;6.60;99.90;;;;;;5108995;27;20031;-71
2023/01/14 07:44:31;;;;;;;30.15;7.22;;;6.70;99.90;;;;;;5129503;27;20070;-71
2023/01/14 07:46:57;;;;;;;30.02;6.57;;;6.70;99.90;;;;;;5128493;27;20035;-71
2023/01/14 07:49:24;;;;;;;31.02;6.20;;;6.70;99.90;;;;;;5101641;27;20050;-71
2023/01/14 07:51:53;;;;;;;29.90;7.00;;;6.70;99.90;;;;;;5128460;27;20043;-71
2023/01/14 07:54:19;;;;;;;24.65;6.25;;;6.70;99.90;;;;;;5123718;27;20046;-71
2023/01/14 07:56:47;;;;;;;30.55;5.70;;;6.70;99.90;;;;;;5113726;27;20504;-70
2023/01/14 07:59:13;;;;;;;32.83;6.00;;;6.70;99.90;;;;;;5127248;27;20489;-71
2023/01/14 08:01:39;;;;;;;27.30;6.75;;;6.70;99.90;;;;;;5125933;27;20046;-71
2023/01/14 08:04:04;;;;;;;28.88;6.03;;;6.70;99.90;;;;;;5127449;27;20039;-71
2023/01/14 08:06:31;;;;;;;26.85;6.20;;;6.70;99.90;;;;;;5108914;27;20512;-71
2023/01/14 08:09:01;;;;;;;32.33;6.22;;;6.80;99.90;;;;;;5131697;27;20043;-71
2023/01/14 08:11:28;;;;;;;32.17;5.43;;;6.80;99.90;;;;;;5109736;27;20039;-71
2023/01/14 08:13:53;;;;;;;22.80;5.30;;;6.70;99.90;;;;;;5107981;27;20043;-71
2023/01/14 08:16:21;;;;;;;30.02;5.13;;;6.80;99.90;;;;;;5108237;27;20655;-71
2023/01/14 08:18:48;;;;;;;26.20;4.93;;;6.80;99.90;;;;;;5130763;27;20051;-71
2023/01/14 08:21:14;;;;;;;29.17;6.00;;;6.80;99.90;;;;;;5112187;27;20126;-71
2023/01/14 08:23:40;;;;;;;27.88;5.07;;;6.80;99.90;;;;;;5129641;27;20296;-71
2023/01/14 08:26:09;;;;;;;26.98;4.88;;;6.90;99.90;;;;;;5128672;27;20139;-71
2023/01/14 08:28:36;;;;;;;28.88;6.15;;;6.80;99.90;;;;;;5129597;27;20050;-71
2023/01/14 08:31:02;;;;;;;26.17;5.43;;;6.90;99.90;;;;;;5108975;27;20047;-71
2023/01/14 08:33:28;;;;;;;26.63;5.05;;;6.80;99.90;;;;;;5109711;27;20408;-72
2023/01/14 08:35:55;;;;;;;30.83;5.65;;;6.70;99.90;;;;;;5127354;27;20035;-72
2023/01/14 08:38:20;;;;;;;28.80;4.95;;;6.80;99.90;;;;;;5111605;27;20412;-72
2023/01/14 08:40:48;;;;;;;27.67;5.13;;;6.80;99.90;;;;;;5111465;27;20043;-71
2023/01/14 08:43:14;;;;;;;;;;;6.80;99.90;;;;;;5130247;27;20038;-71
2023/01/14 08:45:42;;;;;;;26.88;4.93;;;6.80;99.90;;;;;;5125584;27;19970;-72
2023/01/14 08:48:08;;;;;;;26.60;4.80;;;6.80;99.90;;;;;;5121316;27;20055;-72
2023/01/14 08:50:33;;;;;;;24.35;4.53;;;6.80;99.90;;;;;;5115873;27;20043;-77
2023/01/14 08:52:59;;;;;;;29.85;5.38;;;6.80;99.90;;;;;;5106487;27;20055;-78
2023/01/14 08:55:25;;;;;;;24.58;4.63;;;6.70;99.90;;;;;;5125121;27;20031;-76
2023/01/14 08:57:51;;;;;;;26.23;4.93;;;6.80;99.90;;;;;;5114155;27;20478;-76
2023/01/14 09:00:17;;;;;;;25.58;4.82;;;6.80;99.90;;;;;;5110478;27;20054;-76
2023/01/14 09:02:42;;;;;;;25.90;4.82;;;6.80;99.90;;;;;;5129591;27;20054;-76
2023/01/14 09:05:08;;;;;;;25.25;4.78;;;6.80;99.90;;;;;;5127460;27;20051;-76
2023/01/14 09:18:35;;;;;;;24.30;5.03;;;6.80;99.90;;;;;;5111383;28;20079;-76
2023/01/14 09:21:01;;;;;;;26.08;5.60;;;6.80;99.90;;;;;;5126288;27;20046;-77
2023/01/14 09:23:27;;;;;;;28.30;5.35;;;6.80;99.90;;;;;;5113030;28;20084;-76
2023/01/14 09:25:52;;;;;;;21.48;4.65;;;6.90;99.90;;;;;;5109659;28;20122;-77
2023/01/14 09:28:18;;;;;;;17.85;4.45;;;6.80;99.90;;;;;;5108301;28;20043;-70
2023/01/14 09:30:45;;;;;;;26.50;5.88;;;6.80;99.90;;;;;;5130878;28;20497;-75
2023/01/14 09:33:11;;;;;;;20.25;4.68;;;6.80;99.90;;;;;;5130343;28;20071;-72
2023/01/14 09:35:37;;;;;;;25.38;5.50;;;6.90;99.90;;;;;;5109649;28;20046;-73
2023/01/14 09:38:02;;;;;;;25.73;5.50;;;6.90;99.90;;;;;;5109411;28;20405;-74
2023/01/14 09:40:28;;;;;;;24.77;5.03;;;6.90;99.90;;;;;;5124907;28;20050;-74
2023/01/14 09:42:54;;;;;;;21.83;4.75;;;6.90;99.90;;;;;;5112174;28;20546;-74
2023/01/14 09:45:31;;;;;;;21.27;4.80;;;6.90;99.90;;;;;;5129307;28;20047;-74
2023/01/14 09:48:03;;;;;;;27.38;5.57;;;6.90;99.90;;;;;;5129787;28;20050;-72
2023/01/14 09:50:50;;;;;;;22.92;5.50;;;6.90;99.90;;;;;;5131923;28;20500;-73
2023/01/14 09:53:30;;;;;;;;;;;6.90;99.90;;;;;;5112239;28;20500;-71
2023/01/14 09:56:03;;;;;;;23.40;6.10;;;6.90;99.90;;;;;;5115500;28;19961;-72
2023/01/14 09:58:36;;;;;;;23.83;6.47;;;6.90;99.90;;;;;;5098554;28;20043;-74
2023/01/14 10:01:20;;;;;;;19.30;6.45;;;6.90;99.90;;;;;;5126828;28;20043;-73
2023/01/14 10:03:57;;;;;;;21.02;6.30;;;6.90;99.90;;;;;;5128633;27;20075;-74
2023/01/14 10:06:23;;;;;;;;;;;6.80;99.90;;;;;;5114105;27;20121;-75
2023/01/14 10:08:58;;;;;;;22.17;6.43;;;6.90;99.90;;;;;;5133273;27;19992;-75
2023/01/14 10:11:27;;;;;;;23.83;7.68;;;6.90;99.90;;;;;;5129155;27;20043;-74
2023/01/14 10:14:29;;;;;;;22.65;7.03;;;6.90;99.90;;;;;;5130202;27;20096;-72
2023/01/14 10:17:03;;;;;;;21.15;7.30;;;6.90;99.90;;;;;;5083882;27;20078;-75
2023/01/14 10:19:48;;;;;;;15.98;6.35;;;6.90;99.90;;;;;;5112430;27;20039;-75
2023/01/14 10:22:22;;;;;;;18.00;6.47;;;6.90;99.90;;;;;;5122396;27;20046;-71
2023/01/14 10:24:47;;;;;;;18.38;6.30;;;6.90;99.90;;;;;;5114544;27;20569;-71
2023/01/14 10:27:19;;;;;;;15.05;5.95;;;6.90;99.90;;;;;;5130225;27;20122;-72
2023/01/14 10:29:48;;;;;;;20.60;6.32;;;6.90;99.90;;;;;;5115147;27;20478;-71
2023/01/14 10:32:15;;;;;;;14.02;5.70;;;7.00;99.90;;;;;;5134929;27;20039;-71
2023/01/14 10:34:43;;;;;;;15.50;5.88;;;6.90;99.90;;;;;;5132758;27;20043;-71
2023/01/14 10:37:10;;;;;;;16.50;5.72;;;7.00;99.90;;;;;;5114644;27;20409;-71
2023/01/14 10:39:38;;;;;;;15.63;6.07;;;7.00;99.90;;;;;;5133542;27;20047;-71
2023/01/14 10:42:05;;;;;;;17.70;8.02;;;7.00;99.90;;;;;;5105910;27;20478;-71
2023/01/14 10:44:33;;;;;;;18.88;10.43;;;7.00;99.90;;;;;;5114928;27;20051;-72
2023/01/14 10:47:19;;;;;;;17.33;7.55;;;7.10;99.90;;;;;;5119121;27;20047;-75
2023/01/14 10:49:58;;;;;;;14.48;6.70;;;7.10;99.90;;;;;;5119559;27;20050;-75
2023/01/14 10:52:27;;;;;;;15.77;7.40;;;7.10;99.90;;;;;;5114334;27;20036;-74
2023/01/14 10:55:13;;;;;;;12.40;6.20;;;7.10;99.90;;;;;;5111135;27;20057;-77
2023/01/14 10:57:56;;;;;;;14.98;5.75;;;7.20;99.90;;;;;;5098805;27;20039;-74
2023/01/14 11:00:42;;;;;;;12.50;6.82;;;7.20;99.90;;;;;;5124257;27;20080;-77
2023/01/14 11:03:29;;;;;;;15.90;9.35;;;7.20;99.90;;;;;;5126645;27;20040;-74
2023/01/14 11:06:10;;;;;;;22.20;15.68;;;7.20;99.90;;;;;;5114308;27;20047;-75
2023/01/14 11:08:40;;;;;;;32.92;22.00;;;7.30;99.90;;;;;;5130563;27;20047;-76
2023/01/14 11:11:08;;;;;;;16.38;10.15;;;7.20;99.90;;;;;;5114301;27;20134;-75
2023/01/14 11:13:43;;;;;;;18.77;9.73;;;7.30;99.90;;;;;;5109706;27;20151;-75
2023/01/14 11:16:21;;;;;;;15.73;8.90;;;7.40;99.90;;;;;;5125555;27;20039;-80
2023/01/14 11:19:00;;;;;;;13.75;8.60;;;7.40;99.90;;;;;;5107619;27;20486;-77
2023/01/14 11:21:46;;;;;;;25.33;18.33;;;7.50;99.90;;;;;;5127746;27;20035;-74
2023/01/14 11:24:35;;;;;;;31.48;25.13;;;7.40;99.90;;;;;;5119144;27;20039;-72
2023/01/14 11:27:05;;;;;;;12.13;8.13;;;7.50;99.90;;;;;;5130991;27;20478;-74
2023/01/14 11:29:36;;;;;;;16.48;9.77;;;7.50;99.90;;;;;;5126928;27;20090;-73
2023/01/14 11:32:14;;;;;;;19.23;13.38;;;7.60;99.90;;;;;;5131115;27;20497;-74
2023/01/14 11:34:55;;;;;;;27.35;18.60;;;7.50;99.90;;;;;;5108485;27;20051;-74
2023/01/14 11:37:23;;;;;;;14.80;10.00;;;7.50;99.90;;;;;;5129935;27;20039;-74
2023/01/14 11:39:53;;;;;;;11.95;7.47;;;7.60;99.90;;;;;;5115252;27;20049;-74
2023/01/14 11:42:34;;;;;;;13.35;8.45;;;7.50;99.90;;;;;;5109203;27;20051;-74
2023/01/14 11:45:12;;;;;;;11.20;6.03;;;7.50;99.90;;;;;;5120747;27;20118;-68
2023/01/14 11:47:52;;;;;;;13.00;7.82;;;7.60;99.90;;;;;;5112495;27;20573;-75
2023/01/14 11:50:23;;;;;;;11.80;8.20;;;7.60;99.90;;;;;;5127848;27;20077;-71
2023/01/14 11:53:15;;;;;;;9.98;4.72;;;7.60;99.90;;;;;;5130432;27;20043;-70
2023/01/14 11:55:44;;;;;;;9.00;4.30;;;7.60;99.90;;;;;;5127584;27;20045;-75
2023/01/14 11:58:27;;;;;;;10.23;4.05;;;7.70;99.90;;;;;;5094287;27;20047;-76
2023/01/14 12:01:05;;;;;;;9.02;3.88;;;7.60;99.90;;;;;;5130888;27;20089;-76
2023/01/14 12:03:59;;;;;;;11.75;4.20;;;7.60;99.90;;;;;;5110345;27;20397;-77
2023/01/14 12:06:29;;;;;;;6.60;3.72;;;7.60;99.90;;;;;;5130396;27;20043;-77
2023/01/14 12:09:04;;;;;;;8.98;4.00;;;7.60;99.90;;;;;;5121581;27;20055;-73
2023/01/14 12:11:48;;;;;;;7.57;3.75;;;7.70;99.90;;;;;;5127821;27;20054;-74
2023/01/14 12:17:30;;;;;;;7.63;4.18;;;7.70;99.90;;;;;;5104790;27;20157;-75
2023/01/14 12:20:21;;;;;;;10.05;4.38;;;7.70;99.90;;;;;;5110278;27;20094;-74
2023/01/14 12:22:50;;;;;;;8.65;3.97;;;7.70;99.90;;;;;;5130604;27;20053;-77
2023/01/14 12:25:18;;;;;;;9.20;3.65;;;7.70;99.90;;;;;;5111108;27;20035;-79
2023/01/14 12:28:10;;;;;;;8.88;4.10;;;7.70;99.90;;;;;;5125852;27;20103;-74
2023/01/14 12:31:13;;;;;;;11.05;4.35;;;7.80;99.90;;;;;;5102982;27;20053;-75
2023/01/14 12:34:02;;;;;;;9.02;4.18;;;7.80;99.90;;;;;;5081936;27;20790;-73
2023/01/14 12:37:11;;;;;;;10.05;4.57;;;7.80;99.90;;;;;;5105064;27;20054;-74
2023/01/14 12:45:54;;;;;;;7.47;3.90;;;7.90;99.90;;;;;;5049777;28;20060;-73
2023/01/14 12:48:25;;;;;;;19.63;12.90;;;7.90;99.90;;;;;;5049552;28;20050;-73
2023/01/14 12:51:00;;;;;;;8.88;4.68;;;7.90;99.90;;;;;;5083382;27;20051;-73
2023/01/14 12:53:42;;;;;;;9.63;4.32;;;8.00;99.90;;;;;;5111600;27;20054;-73
2023/01/14 12:56:16;;;;;;;9.48;4.00;;;8.00;99.90;;;;;;5127579;27;20044;-73
2023/01/14 12:58:57;;;;;;;7.53;3.85;;;8.00;99.90;;;;;;5109742;27;20051;-73
2023/01/14 13:01:25;;;;;;;8.10;4.05;;;8.10;99.90;;;;;;5110782;27;20055;-73
2023/01/14 13:03:57;;;;;;;6.78;3.80;;;8.00;99.90;;;;;;5130978;27;20397;-73
2023/01/14 13:06:28;;;;;;;6.55;3.40;;;8.10;99.90;;;;;;5129985;27;20039;-73
2023/01/14 13:08:56;;;;;;;7.38;3.17;;;8.10;99.90;;;;;;5111685;28;20090;-72
2023/01/14 13:11:28;;;;;;;8.13;3.60;;;8.20;99.90;;;;;;5128910;27;20115;-72
2023/01/14 13:13:58;;;;;;;6.13;2.90;;;8.20;99.90;;;;;;5112517;27;20050;-73
2023/01/14 13:16:33;;;;;;;5.35;2.45;;;8.30;99.90;;;;;;5110799;28;20043;-73
2023/01/14 13:19:02;;;;;;;5.35;2.60;;;8.30;99.90;;;;;;5130888;27;20165;-73
2023/01/14 13:21:56;;;;;;;4.22;2.30;;;8.30;99.90;;;;;;5129562;28;20079;-72
2023/01/14 13:24:37;;;;;;;5.35;2.28;;;8.30;99.90;;;;;;5111593;28;20363;-73
2023/01/14 13:27:35;;;;;;;4.93;2.30;;;8.40;99.90;;;;;;5129298;28;20122;-73
2023/01/14 13:30:19;;;;;;;3.83;2.40;;;8.40;99.90;;;;;;5111758;28;20138;-71
2023/01/14 13:33:00;;;;;;;4.50;1.77;;;8.50;99.90;;;;;;5112734;28;20051;-73
2023/01/14 13:35:38;;;;;;;4.57;1.75;;;8.50;99.90;;;;;;5110940;28;20513;-72
2023/01/14 13:38:18;;;;;;;3.47;1.60;;;8.50;99.90;;;;;;5111790;27;20054;-72
2023/01/14 13:40:52;;;;;;;4.20;1.60;;;8.60;99.90;;;;;;5119424;27;20045;-73
2023/01/14 13:43:24;;;;;;;5.05;1.58;;;8.60;99.90;;;;;;5114921;27;20062;-73